sensor_id;sensor_type;location;lat;lon;timestamp;pressure;altitude;pressure_sealevel;temperature;humidity
42691;BME280;28306;55.744;37.578;2022-10-17T00:00:29;101017.81;;;21.80;36.92
42691;BME280;28306;55.744;37.578;2022-10-17T00:02:55;101026.78;;;21.87;36.82
42691;BME280;28306;55.744;37.578;2022-10-17T00:05:22;101028.44;;;21.88;36.88
42691;BME280;28306;55.744;37.578;2022-10-17T00:07:48;101027.41;;;21.89;36.97
42691;BME280;28306;55.744;37.578;2022-10-17T00:10:13;101024.06;;;21.87;36.88
42691;BME280;28306;55.744;37.578;2022-10-17T00:12:39;101007.19;;;21.78;36.92
42691;BME280;28306;55.744;37.578;2022-10-17T00:15:06;101017.41;;;21.83;36.99
42691;BME280;28306;55.744;37.578;2022-10-17T00:17:32;100996.56;;;21.76;36.72
42691;BME280;28306;55.744;37.578;2022-10-17T00:19:59;101010.50;;;21.80;36.94
42691;BME280;28306;55.744;37.578;2022-10-17T00:22:25;100992.41;;;21.74;36.87
42691;BME280;28306;55.744;37.578;2022-10-17T00:24:51;100985.53;;;21.71;36.84
42691;BME280;28306;55.744;37.578;2022-10-17T00:27:16;101000.94;;;21.84;36.93
42691;BME280;28306;55.744;37.578;2022-10-17T00:29:42;100990.53;;;21.81;37.01
42691;BME280;28306;55.744;37.578;2022-10-17T00:32:07;100980.34;;;21.70;36.90
42691;BME280;28306;55.744;37.578;2022-10-17T00:34:33;100982.59;;;21.80;36.91
42691;BME280;28306;55.744;37.578;2022-10-17T00:36:59;100983.44;;;21.80;36.90
42691;BME280;28306;55.744;37.578;2022-10-17T00:39:24;100977.78;;;21.82;37.00
42691;BME280;28306;55.744;37.578;2022-10-17T00:41:50;100969.88;;;21.80;36.89
42691;BME280;28306;55.744;37.578;2022-10-17T00:46:57;100965.09;;;21.75;36.70
42691;BME280;28306;55.744;37.578;2022-10-17T00:49:26;100971.94;;;21.85;36.76
42691;BME280;28306;55.744;37.578;2022-10-17T00:51:58;100959.03;;;21.80;36.82
42691;BME280;28306;55.744;37.578;2022-10-17T00:54:29;100947.38;;;21.80;36.83
42691;BME280;28306;55.744;37.578;2022-10-17T00:56:56;100964.66;;;21.92;36.69
42691;BME280;28306;55.744;37.578;2022-10-17T00:59:25;100945.94;;;21.84;36.63
42691;BME280;28306;55.744;37.578;2022-10-17T01:02:11;100931.16;;;21.73;36.84
42691;BME280;28306;55.744;37.578;2022-10-17T01:04:39;100949.88;;;21.81;36.97
42691;BME280;28306;55.744;37.578;2022-10-17T01:07:05;100939.69;;;21.76;36.86
42691;BME280;28306;55.744;37.578;2022-10-17T01:09:31;100927.19;;;21.69;36.86
42691;BME280;28306;55.744;37.578;2022-10-17T01:26:22;100919.47;;;21.79;37.00
42691;BME280;28306;55.744;37.578;2022-10-17T01:31:21;100921.53;;;21.77;36.82
42691;BME280;28306;55.744;37.578;2022-10-17T01:34:23;100916.56;;;21.81;36.97
42691;BME280;28306;55.744;37.578;2022-10-17T01:37:20;100910.28;;;21.80;36.85
42691;BME280;28306;55.744;37.578;2022-10-17T01:39:56;100910.31;;;21.73;36.92
42691;BME280;28306;55.744;37.578;2022-10-17T01:45:00;100905.28;;;21.77;36.73
42691;BME280;28306;55.744;37.578;2022-10-17T01:47:30;100892.41;;;21.72;37.05
42691;BME280;28306;55.744;37.578;2022-10-17T01:50:10;100887.41;;;21.76;36.89
42691;BME280;28306;55.744;37.578;2022-10-17T01:52:45;100888.59;;;21.80;36.93
42691;BME280;28306;55.744;37.578;2022-10-17T01:55:20;100885.69;;;21.82;36.67
42691;BME280;28306;55.744;37.578;2022-10-17T01:57:58;100871.31;;;21.81;36.77
42691;BME280;28306;55.744;37.578;2022-10-17T02:00:26;100880.47;;;21.80;37.06
42691;BME280;28306;55.744;37.578;2022-10-17T02:02:57;100885.91;;;21.80;36.91
42691;BME280;28306;55.744;37.578;2022-10-17T02:05:30;100893.81;;;21.82;36.71
42691;BME280;28306;55.744;37.578;2022-10-17T02:07:57;100869.25;;;21.76;36.87
42691;BME280;28306;55.744;37.578;2022-10-17T02:10:49;100884.03;;;21.81;36.63
42691;BME280;28306;55.744;37.578;2022-10-17T02:18:45;100886.97;;;21.79;36.65
42691;BME280;28306;55.744;37.578;2022-10-17T02:21:32;100876.34;;;21.77;36.78
42691;BME280;28306;55.744;37.578;2022-10-17T02:26:58;100873.00;;;21.75;36.92
42691;BME280;28306;55.744;37.578;2022-10-17T02:29:55;100872.63;;;21.65;36.85
42691;BME280;28306;55.744;37.578;2022-10-17T02:32:27;100866.16;;;21.73;36.95
42691;BME280;28306;55.744;37.578;2022-10-17T02:34:57;100865.75;;;21.69;36.88
42691;BME280;28306;55.744;37.578;2022-10-17T02:37:27;100863.91;;;21.63;36.93
42691;BME280;28306;55.744;37.578;2022-10-17T02:39:57;100872.59;;;21.72;36.85
42691;BME280;28306;55.744;37.578;2022-10-17T02:42:24;100862.63;;;21.72;36.95
42691;BME280;28306;55.744;37.578;2022-10-17T02:44:51;100856.56;;;21.70;36.82
42691;BME280;28306;55.744;37.578;2022-10-17T02:47:25;100857.22;;;21.72;36.87
42691;BME280;28306;55.744;37.578;2022-10-17T02:49:54;100853.84;;;21.70;36.68
42691;BME280;28306;55.744;37.578;2022-10-17T02:55:05;100848.22;;;21.72;36.99
42691;BME280;28306;55.744;37.578;2022-10-17T02:57:46;100842.38;;;21.75;36.92
42691;BME280;28306;55.744;37.578;2022-10-17T03:00:14;100833.88;;;21.71;36.82
42691;BME280;28306;55.744;37.578;2022-10-17T03:02:52;100830.53;;;21.69;36.74
42691;BME280;28306;55.744;37.578;2022-10-17T03:05:24;100831.34;;;21.76;36.81
42691;BME280;28306;55.744;37.578;2022-10-17T03:07:51;100835.06;;;21.75;36.73
42691;BME280;28306;55.744;37.578;2022-10-17T03:10:17;100838.84;;;21.74;36.89
42691;BME280;28306;55.744;37.578;2022-10-17T03:12:43;100830.34;;;21.71;36.89
42691;BME280;28306;55.744;37.578;2022-10-17T03:15:11;100829.06;;;21.73;36.83
42691;BME280;28306;55.744;37.578;2022-10-17T03:17:37;100822.84;;;21.66;36.64
42691;BME280;28306;55.744;37.578;2022-10-17T03:20:04;100820.31;;;21.71;36.69
42691;BME280;28306;55.744;37.578;2022-10-17T03:22:30;100792.66;;;21.56;36.73
42691;BME280;28306;55.744;37.578;2022-10-17T03:24:57;100803.69;;;21.68;36.84
42691;BME280;28306;55.744;37.578;2022-10-17T03:27:23;100787.22;;;21.63;36.86
42691;BME280;28306;55.744;37.578;2022-10-17T03:29:49;100784.28;;;21.64;36.84
42691;BME280;28306;55.744;37.578;2022-10-17T03:32:16;100775.38;;;21.57;36.98
42691;BME280;28306;55.744;37.578;2022-10-17T03:34:42;100788.25;;;21.68;36.81
42691;BME280;28306;55.744;37.578;2022-10-17T03:37:08;100785.75;;;21.67;36.83
42691;BME280;28306;55.744;37.578;2022-10-17T03:39:36;100775.78;;;21.60;36.79
42691;BME280;28306;55.744;37.578;2022-10-17T03:42:01;100775.81;;;21.54;36.98
42691;BME280;28306;55.744;37.578;2022-10-17T03:44:28;100785.38;;;21.63;36.94
42691;BME280;28306;55.744;37.578;2022-10-17T03:46:53;100785.97;;;21.65;36.80
42691;BME280;28306;55.744;37.578;2022-10-17T03:49:19;100785.97;;;21.65;36.77
42691;BME280;28306;55.744;37.578;2022-10-17T03:51:45;100740.84;;;21.39;36.80
42691;BME280;28306;55.744;37.578;2022-10-17T03:54:13;100774.09;;;21.66;36.93
42691;BME280;28306;55.744;37.578;2022-10-17T03:56:39;100780.56;;;21.65;36.78
42691;BME280;28306;55.744;37.578;2022-10-17T03:59:13;100781.81;;;21.63;36.78
42691;BME280;28306;55.744;37.578;2022-10-17T04:01:41;100775.34;;;21.64;36.76
42691;BME280;28306;55.744;37.578;2022-10-17T04:04:07;100776.59;;;21.68;37.04
42691;BME280;28306;55.744;37.578;2022-10-17T04:06:36;100754.13;;;21.60;36.66
42691;BME280;28306;55.744;37.578;2022-10-17T04:09:04;100766.38;;;21.70;36.71
42691;BME280;28306;55.744;37.578;2022-10-17T04:11:40;100746.81;;;21.61;36.57
42691;BME280;28306;55.744;37.578;2022-10-17T04:14:06;100751.59;;;21.66;36.41
42691;BME280;28306;55.744;37.578;2022-10-17T04:16:32;100774.88;;;21.73;36.68
42691;BME280;28306;55.744;37.578;2022-10-17T04:19:01;100769.03;;;21.76;36.67
42691;BME280;28306;55.744;37.578;2022-10-17T04:21:32;100742.38;;;21.73;36.64
42691;BME280;28306;55.744;37.578;2022-10-17T04:24:03;100738.69;;;21.68;36.64
42691;BME280;28306;55.744;37.578;2022-10-17T04:26:45;100754.66;;;21.76;36.74
42691;BME280;28306;55.744;37.578;2022-10-17T04:29:13;100759.44;;;21.74;36.53
42691;BME280;28306;55.744;37.578;2022-10-17T04:31:41;100747.56;;;21.75;36.60
42691;BME280;28306;55.744;37.578;2022-10-17T04:34:20;100737.38;;;21.70;36.67
42691;BME280;28306;55.744;37.578;2022-10-17T04:36:46;100733.84;;;21.70;36.64
42691;BME280;28306;55.744;37.578;2022-10-17T04:39:12;100736.56;;;21.70;36.74
42691;BME280;28306;55.744;37.578;2022-10-17T04:41:39;100733.03;;;21.69;36.67
42691;BME280;28306;55.744;37.578;2022-10-17T04:44:04;100709.13;;;21.59;36.54
42691;BME280;28306;55.744;37.578;2022-10-17T04:46:34;100732.59;;;21.72;36.54
42691;BME280;28306;55.744;37.578;2022-10-17T04:48:59;100731.53;;;21.73;36.78
42691;BME280;28306;55.744;37.578;2022-10-17T04:51:26;100725.53;;;21.71;36.62
42691;BME280;28306;55.744;37.578;2022-10-17T04:54:16;100707.69;;;21.57;36.65
42691;BME280;28306;55.744;37.578;2022-10-17T04:56:45;100729.47;;;21.69;36.69
42691;BME280;28306;55.744;37.578;2022-10-17T04:59:11;100722.63;;;21.66;36.72
42691;BME280;28306;55.744;37.578;2022-10-17T05:01:39;100732.81;;;21.71;36.53
42691;BME280;28306;55.744;37.578;2022-10-17T05:04:05;100724.69;;;21.71;36.63
42691;BME280;28306;55.744;37.578;2022-10-17T05:06:31;100720.72;;;21.73;36.52
42691;BME280;28306;55.744;37.578;2022-10-17T05:09:24;100724.88;;;21.76;36.44
42691;BME280;28306;55.744;37.578;2022-10-17T05:11:50;100716.09;;;21.74;36.47
42691;BME280;28306;55.744;37.578;2022-10-17T05:14:16;100718.16;;;21.78;36.45
42691;BME280;28306;55.744;37.578;2022-10-17T05:16:42;100707.75;;;21.75;36.51
42691;BME280;28306;55.744;37.578;2022-10-17T05:19:08;100718.56;;;21.82;36.36
42691;BME280;28306;55.744;37.578;2022-10-17T05:21:40;100707.75;;;21.82;36.34
42691;BME280;28306;55.744;37.578;2022-10-17T05:24:08;100699.84;;;21.81;36.36
42691;BME280;28306;55.744;37.578;2022-10-17T05:26:34;100684.63;;;21.80;36.16
42691;BME280;28306;55.744;37.578;2022-10-17T05:29:00;100662.00;;;21.67;36.42
42691;BME280;28306;55.744;37.578;2022-10-17T05:31:29;100682.72;;;21.80;36.37
42691;BME280;28306;55.744;37.578;2022-10-17T05:34:00;100684.44;;;21.74;36.36
42691;BME280;28306;55.744;37.578;2022-10-17T05:36:26;100688.41;;;21.72;36.47
42691;BME280;28306;55.744;37.578;2022-10-17T05:38:52;100701.91;;;21.78;36.64
42691;BME280;28306;55.744;37.578;2022-10-17T05:41:18;100672.22;;;21.65;36.49
42691;BME280;28306;55.744;37.578;2022-10-17T05:43:45;100680.91;;;21.74;36.59
42691;BME280;28306;55.744;37.578;2022-10-17T05:46:16;100674.44;;;21.75;36.38
42691;BME280;28306;55.744;37.578;2022-10-17T05:48:41;100673.63;;;21.74;36.44
42691;BME280;28306;55.744;37.578;2022-10-17T05:51:08;100665.50;;;21.74;36.42
42691;BME280;28306;55.744;37.578;2022-10-17T05:53:38;100667.75;;;21.77;36.66
42691;BME280;28306;55.744;37.578;2022-10-17T05:56:08;100660.47;;;21.78;36.63
42691;BME280;28306;55.744;37.578;2022-10-17T05:58:35;100660.84;;;21.82;36.79
42691;BME280;28306;55.744;37.578;2022-10-17T06:01:04;100658.53;;;21.85;36.76
42691;BME280;28306;55.744;37.578;2022-10-17T06:03:31;100652.50;;;21.83;36.88
42691;BME280;28306;55.744;37.578;2022-10-17T06:06:09;100660.03;;;21.81;36.94
42691;BME280;28306;55.744;37.578;2022-10-17T06:08:38;100657.03;;;21.89;37.22
42691;BME280;28306;55.744;37.578;2022-10-17T06:11:06;100643.09;;;21.86;37.27
42691;BME280;28306;55.744;37.578;2022-10-17T06:13:31;100635.63;;;21.81;37.27
42691;BME280;28306;55.744;37.578;2022-10-17T06:16:00;100652.63;;;21.95;37.21
42691;BME280;28306;55.744;37.578;2022-10-17T06:18:26;100636.81;;;21.92;37.60
42691;BME280;28306;55.744;37.578;2022-10-17T06:20:52;100637.03;;;21.90;37.66
42691;BME280;28306;55.744;37.578;2022-10-17T06:23:19;100648.44;;;21.99;37.38
42691;BME280;28306;55.744;37.578;2022-10-17T06:26:07;100645.28;;;22.02;37.36
42691;BME280;28306;55.744;37.578;2022-10-17T06:28:34;100653.63;;;22.01;37.09
42691;BME280;28306;55.744;37.578;2022-10-17T06:31:08;100643.47;;;21.89;37.28
42691;BME280;28306;55.744;37.578;2022-10-17T06:33:35;100653.41;;;22.02;37.10
42691;BME280;28306;55.744;37.578;2022-10-17T06:36:02;100662.56;;;22.01;37.05
42691;BME280;28306;55.744;37.578;2022-10-17T06:38:30;100658.63;;;21.97;37.05
42691;BME280;28306;55.744;37.578;2022-10-17T06:41:05;100662.56;;;22.01;36.94
42691;BME280;28306;55.744;37.578;2022-10-17T06:43:34;100659.66;;;22.03;36.76
42691;BME280;28306;55.744;37.578;2022-10-17T06:46:19;100630.13;;;21.94;36.90
42691;BME280;28306;55.744;37.578;2022-10-17T06:48:55;100635.03;;;22.04;36.98
42691;BME280;28306;55.744;37.578;2022-10-17T06:51:46;100621.25;;;22.06;36.56
42691;BME280;28306;55.744;37.578;2022-10-17T06:54:14;100617.47;;;22.07;36.48
42691;BME280;28306;55.744;37.578;2022-10-17T06:57:00;100623.53;;;22.09;36.48
42691;BME280;28306;55.744;37.578;2022-10-17T06:59:25;100625.38;;;22.08;36.64
42691;BME280;28306;55.744;37.578;2022-10-17T07:01:59;100624.19;;;22.04;36.59
42691;BME280;28306;55.744;37.578;2022-10-17T07:04:26;100628.28;;;22.13;36.19
42691;BME280;28306;55.744;37.578;2022-10-17T07:06:52;100620.59;;;22.10;36.32
42691;BME280;28306;55.744;37.578;2022-10-17T07:09:20;100626.63;;;22.12;36.16
42691;BME280;28306;55.744;37.578;2022-10-17T07:11:47;100609.19;;;22.02;36.30
42691;BME280;28306;55.744;37.578;2022-10-17T07:14:16;100630.16;;;22.13;35.99
42691;BME280;28306;55.744;37.578;2022-10-17T07:16:42;100612.53;;;22.04;36.11
42691;BME280;28306;55.744;37.578;2022-10-17T07:19:16;100615.41;;;22.09;36.15
42691;BME280;28306;55.744;37.578;2022-10-17T07:21:42;100609.34;;;22.07;36.06
42691;BME280;28306;55.744;37.578;2022-10-17T07:24:09;100606.97;;;22.17;36.16
42691;BME280;28306;55.744;37.578;2022-10-17T07:26:36;100610.28;;;22.19;36.02
42691;BME280;28306;55.744;37.578;2022-10-17T07:29:02;100587.66;;;22.07;35.81
42691;BME280;28306;55.744;37.578;2022-10-17T07:31:41;100587.44;;;22.08;35.96
42691;BME280;28306;55.744;37.578;2022-10-17T07:34:06;100601.94;;;22.21;36.03
42691;BME280;28306;55.744;37.578;2022-10-17T07:36:32;100599.00;;;22.22;35.83
42691;BME280;28306;55.744;37.578;2022-10-17T07:39:00;100594.66;;;22.21;35.99
42691;BME280;28306;55.744;37.578;2022-10-17T07:41:27;100581.53;;;22.18;35.83
42691;BME280;28306;55.744;37.578;2022-10-17T07:43:53;100596.28;;;22.22;35.86
42691;BME280;28306;55.744;37.578;2022-10-17T07:46:24;100588.66;;;22.12;35.76
42691;BME280;28306;55.744;37.578;2022-10-17T07:48:50;100607.56;;;22.19;35.82
42691;BME280;28306;55.744;37.578;2022-10-17T07:51:18;100599.00;;;22.22;35.78
42691;BME280;28306;55.744;37.578;2022-10-17T07:53:46;100590.50;;;22.19;36.02
42691;BME280;28306;55.744;37.578;2022-10-17T07:56:12;100594.69;;;22.14;35.87
42691;BME280;28306;55.744;37.578;2022-10-17T07:58:38;100576.38;;;22.10;35.96
42691;BME280;28306;55.744;37.578;2022-10-17T08:01:06;100570.59;;;22.06;36.04
42691;BME280;28306;55.744;37.578;2022-10-17T08:03:32;100591.81;;;22.09;35.90
42691;BME280;28306;55.744;37.578;2022-10-17T08:06:02;100587.00;;;22.11;35.90
42691;BME280;28306;55.744;37.578;2022-10-17T08:08:28;100590.34;;;22.13;36.09
42691;BME280;28306;55.744;37.578;2022-10-17T08:10:54;100590.78;;;22.10;35.92
42691;BME280;28306;55.744;37.578;2022-10-17T08:13:21;100590.56;;;22.12;35.84
42691;BME280;28306;55.744;37.578;2022-10-17T08:15:47;100575.78;;;22.08;35.85
42691;BME280;28306;55.744;37.578;2022-10-17T08:18:14;100553.38;;;22.01;35.90
42691;BME280;28306;55.744;37.578;2022-10-17T08:20:41;100558.38;;;21.97;36.18
42691;BME280;28306;55.744;37.578;2022-10-17T08:23:07;100602.66;;;22.09;35.94
42691;BME280;28306;55.744;37.578;2022-10-17T08:25:32;100579.47;;;21.95;36.08
42691;BME280;28306;55.744;37.578;2022-10-17T08:27:58;100570.06;;;21.98;35.99
42691;BME280;28306;55.744;37.578;2022-10-17T08:30:24;100573.91;;;22.08;36.18
42691;BME280;28306;55.744;37.578;2022-10-17T08:32:50;100577.09;;;22.05;36.14
42691;BME280;28306;55.744;37.578;2022-10-17T08:35:16;100580.03;;;22.04;36.04
42691;BME280;28306;55.744;37.578;2022-10-17T08:37:41;100576.09;;;22.00;36.25
42691;BME280;28306;55.744;37.578;2022-10-17T08:40:15;100572.34;;;22.01;36.30
42691;BME280;28306;55.744;37.578;2022-10-17T08:42:50;100579.94;;;22.10;36.36
42691;BME280;28306;55.744;37.578;2022-10-17T08:45:31;100558.94;;;22.06;36.34
42691;BME280;28306;55.744;37.578;2022-10-17T08:47:59;100546.81;;;22.08;36.34
42691;BME280;28306;55.744;37.578;2022-10-17T08:50:30;100567.38;;;22.16;36.22
42691;BME280;28306;55.744;37.578;2022-10-17T08:55:39;100573.44;;;22.11;36.26
42691;BME280;28306;55.744;37.578;2022-10-17T08:58:26;100589.50;;;22.13;36.31
42691;BME280;28306;55.744;37.578;2022-10-17T09:01:04;100590.38;;;22.07;36.28
42691;BME280;28306;55.744;37.578;2022-10-17T09:03:34;100582.03;;;22.08;36.57
42691;BME280;28306;55.744;37.578;2022-10-17T09:06:24;100562.22;;;21.89;36.58
42691;BME280;28306;55.744;37.578;2022-10-17T09:15:10;100571.03;;;22.03;36.83
42691;BME280;28306;55.744;37.578;2022-10-17T09:17:51;100585.03;;;22.00;36.74
42691;BME280;28306;55.744;37.578;2022-10-17T09:20:45;100573.59;;;21.98;36.91
42691;BME280;28306;55.744;37.578;2022-10-17T09:23:12;100575.28;;;21.99;36.74
42691;BME280;28306;55.744;37.578;2022-10-17T09:25:51;100575.28;;;21.99;36.94
42691;BME280;28306;55.744;37.578;2022-10-17T09:28:38;100585.88;;;22.01;36.88
42691;BME280;28306;55.744;37.578;2022-10-17T09:41:29;100560.44;;;22.02;36.85
42691;BME280;28306;55.744;37.578;2022-10-17T09:44:13;100547.94;;;22.01;36.79
42691;BME280;28306;55.744;37.578;2022-10-17T09:46:45;100526.09;;;21.95;36.62
42691;BME280;28306;55.744;37.578;2022-10-17T09:49:24;100550.38;;;22.09;36.39
42691;BME280;28306;55.744;37.578;2022-10-17T09:51:53;100542.47;;;22.07;36.47
42691;BME280;28306;55.744;37.578;2022-10-17T09:54:23;100529.81;;;22.01;36.52
42691;BME280;28306;55.744;37.578;2022-10-17T09:57:04;100551.78;;;22.11;36.55
42691;BME280;28306;55.744;37.578;2022-10-17T10:00:00;100529.34;;;22.04;36.56
42691;BME280;28306;55.744;37.578;2022-10-17T10:02:28;100527.25;;;22.06;36.56
42691;BME280;28306;55.744;37.578;2022-10-17T10:05:00;100516.41;;;22.06;36.46
42691;BME280;28306;55.744;37.578;2022-10-17T10:07:29;100526.78;;;22.09;36.43
42691;BME280;28306;55.744;37.578;2022-10-17T10:09:55;100517.00;;;22.08;36.51
42691;BME280;28306;55.744;37.578;2022-10-17T10:12:25;100503.00;;;21.93;36.55
42691;BME280;28306;55.744;37.578;2022-10-17T10:14:51;100516.63;;;22.05;36.54
42691;BME280;28306;55.744;37.578;2022-10-17T10:17:37;100506.38;;;22.07;36.48
42691;BME280;28306;55.744;37.578;2022-10-17T10:20:33;100499.41;;;21.99;36.62
42691;BME280;28306;55.744;37.578;2022-10-17T10:23:16;100491.09;;;21.94;36.51
42691;BME280;28306;55.744;37.578;2022-10-17T10:25:55;100497.44;;;22.06;36.36
42691;BME280;28306;55.744;37.578;2022-10-17T10:28:25;100493.53;;;22.02;36.55
42691;BME280;28306;55.744;37.578;2022-10-17T10:30:52;100487.50;;;22.00;36.44
42691;BME280;28306;55.744;37.578;2022-10-17T10:33:26;100479.97;;;22.02;36.61
42691;BME280;28306;55.744;37.578;2022-10-17T10:36:10;100482.00;;;22.07;36.42
42691;BME280;28306;55.744;37.578;2022-10-17T10:38:38;100472.44;;;22.04;36.37
42691;BME280;28306;55.744;37.578;2022-10-17T10:41:09;100477.03;;;22.04;36.39
42691;BME280;28306;55.744;37.578;2022-10-17T10:43:45;100469.97;;;22.03;36.55
42691;BME280;28306;55.744;37.578;2022-10-17T10:46:19;100471.69;;;21.97;36.50
42691;BME280;28306;55.744;37.578;2022-10-17T10:48:57;100495.78;;;22.05;36.49
42691;BME280;28306;55.744;37.578;2022-10-17T10:51:43;100486.59;;;22.06;36.49
42691;BME280;28306;55.744;37.578;2022-10-17T10:56:52;100463.03;;;22.07;36.41
42691;BME280;28306;55.744;37.578;2022-10-17T10:59:44;100463.41;;;22.10;36.40
42691;BME280;28306;55.744;37.578;2022-10-17T11:02:18;100461.66;;;22.16;36.26
42691;BME280;28306;55.744;37.578;2022-10-17T11:05:00;100445.72;;;22.08;36.25
42691;BME280;28306;55.744;37.578;2022-10-17T11:11:39;100453.97;;;22.13;36.08
42691;BME280;28306;55.744;37.578;2022-10-17T11:14:15;100431.44;;;22.01;36.25
42691;BME280;28306;55.744;37.578;2022-10-17T11:17:02;100441.09;;;22.08;36.18
42691;BME280;28306;55.744;37.578;2022-10-17T11:19:41;100443.81;;;22.08;36.44
42691;BME280;28306;55.744;37.578;2022-10-17T11:22:25;100450.31;;;22.07;36.41
42691;BME280;28306;55.744;37.578;2022-10-17T11:27:27;100451.34;;;22.06;36.38
42691;BME280;28306;55.744;37.578;2022-10-17T11:29:54;100445.34;;;22.04;36.43
42691;BME280;28306;55.744;37.578;2022-10-17T11:32:26;100455.38;;;22.04;36.44
42691;BME280;28306;55.744;37.578;2022-10-17T11:35:00;100435.41;;;21.98;36.42
42691;BME280;28306;55.744;37.578;2022-10-17T11:37:31;100452.88;;;22.02;36.43
42691;BME280;28306;55.744;37.578;2022-10-17T11:40:03;100442.09;;;21.95;36.51
42691;BME280;28306;55.744;37.578;2022-10-17T11:42:39;100423.00;;;21.90;36.44
42691;BME280;28306;55.744;37.578;2022-10-17T11:45:10;100427.75;;;21.95;36.35
42691;BME280;28306;55.744;37.578;2022-10-17T11:47:44;100422.53;;;21.93;36.55
42691;BME280;28306;55.744;37.578;2022-10-17T11:52:53;100415.53;;;22.04;36.20
42691;BME280;28306;55.744;37.578;2022-10-17T11:55:24;100393.78;;;21.92;36.62
42691;BME280;28306;55.744;37.578;2022-10-17T12:06:15;100393.78;;;22.11;36.29
42691;BME280;28306;55.744;37.578;2022-10-17T12:11:24;100396.72;;;22.09;36.33
42691;BME280;28306;55.744;37.578;2022-10-17T12:13:53;100394.00;;;22.09;36.36
42691;BME280;28306;55.744;37.578;2022-10-17T12:18:48;100388.34;;;22.11;36.38
42691;BME280;28306;55.744;37.578;2022-10-17T12:21:16;100390.84;;;22.12;36.35
42691;BME280;28306;55.744;37.578;2022-10-17T12:23:51;100360.00;;;21.95;36.32
42691;BME280;28306;55.744;37.578;2022-10-17T12:26:25;100391.06;;;22.11;36.38
42691;BME280;28306;55.744;37.578;2022-10-17T12:28:52;100369.94;;;22.01;36.33
42691;BME280;28306;55.744;37.578;2022-10-17T12:33:52;100377.16;;;22.07;36.51
42691;BME280;28306;55.744;37.578;2022-10-17T13:00:22;100445.44;;;21.98;36.61
42691;BME280;28306;55.744;37.578;2022-10-17T13:02:53;100415.22;;;21.75;36.64
42691;BME280;28306;55.744;37.578;2022-10-17T13:05:31;100448.38;;;21.96;36.63
42691;BME280;28306;55.744;37.578;2022-10-17T13:08:00;100452.56;;;21.92;36.52
42691;BME280;28306;55.744;37.578;2022-10-17T13:10:28;100456.94;;;21.93;36.72
42691;BME280;28306;55.744;37.578;2022-10-17T13:15:34;100473.78;;;21.95;36.61
42691;BME280;28306;55.744;37.578;2022-10-17T13:18:00;100473.34;;;21.98;36.75
42691;BME280;28306;55.744;37.578;2022-10-17T13:20:28;100476.38;;;21.90;36.76
42691;BME280;28306;55.744;37.578;2022-10-17T13:22:56;100475.91;;;21.93;36.62
42691;BME280;28306;55.744;37.578;2022-10-17T13:25:22;100488.56;;;21.99;36.77
42691;BME280;28306;55.744;37.578;2022-10-17T13:27:49;100487.13;;;21.96;36.70
42691;BME280;28306;55.744;37.578;2022-10-17T13:30:28;100485.22;;;21.97;36.79
42691;BME280;28306;55.744;37.578;2022-10-17T13:32:54;100485.44;;;21.95;36.70
42691;BME280;28306;55.744;37.578;2022-10-17T13:35:27;100476.28;;;21.96;36.89
42691;BME280;28306;55.744;37.578;2022-10-17T13:37:54;100473.78;;;21.95;36.70
42691;BME280;28306;55.744;37.578;2022-10-17T13:40:26;100455.38;;;21.85;36.77
42691;BME280;28306;55.744;37.578;2022-10-17T13:42:54;100460.94;;;21.90;36.80
42691;BME280;28306;55.744;37.578;2022-10-17T13:45:31;100458.34;;;21.95;36.78
42691;BME280;28306;55.744;37.578;2022-10-17T13:48:03;100460.25;;;21.95;36.69
42691;BME280;28306;55.744;37.578;2022-10-17T13:50:34;100437.06;;;21.81;36.90
42691;BME280;28306;55.744;37.578;2022-10-17T13:53:25;100456.94;;;21.93;36.80
42691;BME280;28306;55.744;37.578;2022-10-17T13:56:00;100442.31;;;21.94;36.83
42691;BME280;28306;55.744;37.578;2022-10-17T13:58:38;100440.69;;;21.93;36.79
42691;BME280;28306;55.744;37.578;2022-10-17T14:01:05;100405.69;;;21.73;36.86
42691;BME280;28306;55.744;37.578;2022-10-17T14:03:31;100418.84;;;21.88;36.68
42691;BME280;28306;55.744;37.578;2022-10-17T14:06:03;100425.94;;;21.89;36.88
42691;BME280;28306;55.744;37.578;2022-10-17T14:08:31;100420.06;;;21.92;36.87
42691;BME280;28306;55.744;37.578;2022-10-17T14:10:58;100420.88;;;21.92;36.85
42691;BME280;28306;55.744;37.578;2022-10-17T14:13:27;100410.88;;;21.93;36.87
42691;BME280;28306;55.744;37.578;2022-10-17T14:15:55;100418.16;;;21.92;36.91
42691;BME280;28306;55.744;37.578;2022-10-17T14:18:26;100391.03;;;21.81;36.89
42691;BME280;28306;55.744;37.578;2022-10-17T14:20:52;100407.72;;;21.96;36.85
42691;BME280;28306;55.744;37.578;2022-10-17T14:23:38;100409.75;;;22.01;36.72
42691;BME280;28306;55.744;37.578;2022-10-17T14:26:10;100410.00;;;21.99;36.68
42691;BME280;28306;55.744;37.578;2022-10-17T14:28:38;100412.47;;;22.01;36.63
42691;BME280;28306;55.744;37.578;2022-10-17T14:31:34;100417.44;;;22.04;36.66
42691;BME280;28306;55.744;37.578;2022-10-17T14:34:02;100380.78;;;21.83;36.70
42691;BME280;28306;55.744;37.578;2022-10-17T14:36:35;100417.66;;;22.02;36.69
42691;BME280;28306;55.744;37.578;2022-10-17T14:39:02;100424.72;;;22.03;36.60
42691;BME280;28306;55.744;37.578;2022-10-17T14:41:32;100407.88;;;22.01;36.75
42691;BME280;28306;55.744;37.578;2022-10-17T14:44:02;100414.31;;;22.00;36.79
42691;BME280;28306;55.744;37.578;2022-10-17T14:46:30;100421.41;;;22.01;36.71